Time;durP1;ratioP1;P1;durP2;ratioP2;P2;SDS_P1;SDS_P2;PMS_P1;PMS_P2;Temp;Humidity;BMP_temperature;BMP_pressure;BME280_temperature;BME280_humidity;BME280_pressure;Samples;Min_cycle;Max_cycle;Signal;HPM_P1;HPM_P2
2022/12/10 00:01:19;;;;;;;550.47;224.10;;;;;;;;;;5050104;28;20714;-49
2022/12/10 00:03:45;;;;;;;421.63;179.10;;;;;;;;;;5053867;28;20695;-50
2022/12/10 00:06:12;;;;;;;454.30;186.17;;;;;;;;;;5055531;28;20210;-49
2022/12/10 00:08:38;;;;;;;432.20;181.93;;;;;;;;;;5056072;28;20211;-50
2022/12/10 00:11:05;;;;;;;525.03;218.37;;;;;;;;;;5059521;28;20187;-49
2022/12/10 00:13:31;;;;;;;570.70;232.23;;;;;;;;;;5053602;28;20242;-50
2022/12/10 00:16:00;;;;;;;429.17;179.30;;;;;;;;;;5054038;28;20261;-49
2022/12/10 00:18:26;;;;;;;534.20;220.67;;;;;;;;;;5051309;28;20211;-49
2022/12/10 00:20:52;;;;;;;403.77;168.20;;;;;;;;;;5055888;28;20270;-49
2022/12/10 00:23:18;;;;;;;398.00;168.73;;;;;;;;;;5056118;28;20286;-49
2022/12/10 00:25:44;;;;;;;420.47;175.03;;;;;;;;;;5059187;28;20640;-50
2022/12/10 00:28:10;;;;;;;457.77;187.93;;;;;;;;;;5054863;28;20206;-49
2022/12/10 00:30:37;;;;;;;533.27;219.00;;;;;;;;;;5055927;28;20369;-49
2022/12/10 00:33:02;;;;;;;454.43;185.63;;;;;;;;;;5058890;28;20590;-50
2022/12/10 00:35:29;;;;;;;548.67;228.73;;;;;;;;;;5056456;28;20206;-50
2022/12/10 00:37:55;;;;;;;471.70;195.33;;;;;;;;;;5056975;28;20617;-50
2022/12/10 00:40:21;;;;;;;558.97;226.97;;;;;;;;;;5057316;28;20547;-50
2022/12/10 00:42:47;;;;;;;544.67;218.87;;;;;;;;;;5059046;28;20230;-50
2022/12/10 00:45:13;;;;;;;558.97;232.83;;;;;;;;;;5055840;28;20237;-50
2022/12/10 00:47:39;;;;;;;430.17;180.67;;;;;;;;;;5055369;28;20261;-50
2022/12/10 00:50:05;;;;;;;475.23;187.43;;;;;;;;;;5058407;28;20274;-50
2022/12/10 00:52:31;;;;;;;538.27;220.50;;;;;;;;;;5055275;28;20226;-50
2022/12/10 00:54:57;;;;;;;475.70;196.43;;;;;;;;;;5058683;28;20351;-50
2022/12/10 00:57:23;;;;;;;531.03;220.60;;;;;;;;;;5055849;28;20233;-50
2022/12/10 00:59:49;;;;;;;530.70;217.10;;;;;;;;;;5058942;28;20226;-50
2022/12/10 01:02:15;;;;;;;466.60;194.43;;;;;;;;;;5059602;28;20246;-50
2022/12/10 01:04:41;;;;;;;469.43;198.60;;;;;;;;;;5054196;28;20272;-50
2022/12/10 01:07:08;;;;;;;447.83;184.30;;;;;;;;;;5057773;28;20218;-50
2022/12/10 01:09:34;;;;;;;537.90;219.67;;;;;;;;;;5056374;28;20211;-50
2022/12/10 01:12:01;;;;;;;457.23;193.90;;;;;;;;;;5054433;28;20244;-50
2022/12/10 01:14:28;;;;;;;529.63;219.17;;;;;;;;;;5054199;28;20280;-50
2022/12/10 01:16:55;;;;;;;432.47;179.33;;;;;;;;;;5057988;28;20221;-50
2022/12/10 01:19:22;;;;;;;461.40;184.70;;;;;;;;;;5054025;28;20183;-50
2022/12/10 01:21:51;;;;;;;456.27;186.33;;;;;;;;;;5055432;28;20218;-50
2022/12/10 01:24:17;;;;;;;430.63;185.47;;;;;;;;;;5054433;28;20379;-50
2022/12/10 01:26:43;;;;;;;529.77;215.50;;;;;;;;;;5053250;28;20609;-50
2022/12/10 01:29:11;;;;;;;445.87;176.50;;;;;;;;;;5055201;28;20182;-50
2022/12/10 01:31:37;;;;;;;519.03;208.80;;;;;;;;;;5054581;28;20607;-49
2022/12/10 01:34:05;;;;;;;448.40;182.37;;;;;;;;;;5053246;28;20307;-49
2022/12/10 01:36:39;;;;;;;525.50;207.60;;;;;;;;;;5056591;28;20310;-49
2022/12/10 01:39:06;;;;;;;503.47;204.50;;;;;;;;;;5054217;28;20556;-49
2022/12/10 01:41:39;;;;;;;532.77;212.63;;;;;;;;;;5054426;28;20666;-50
2022/12/10 01:44:06;;;;;;;419.80;173.40;;;;;;;;;;5059727;28;20371;-50
2022/12/10 01:46:33;;;;;;;418.47;177.13;;;;;;;;;;5061322;28;20258;-50
2022/12/10 01:49:00;;;;;;;542.37;217.20;;;;;;;;;;5051435;28;20207;-50
2022/12/10 01:51:26;;;;;;;380.70;161.87;;;;;;;;;;5066302;28;20686;-50
2022/12/10 01:53:52;;;;;;;555.87;231.87;;;;;;;;;;5057221;28;20239;-50
2022/12/10 01:56:19;;;;;;;392.53;163.80;;;;;;;;;;5056155;28;20257;-50
2022/12/10 01:58:45;;;;;;;410.07;163.13;;;;;;;;;;5062185;28;20324;-50
2022/12/10 02:01:11;;;;;;;435.53;177.60;;;;;;;;;;5060625;28;20219;-50
2022/12/10 02:03:40;;;;;;;515.43;200.23;;;;;;;;;;5056738;28;20686;-50
2022/12/10 02:06:25;;;;;;;530.47;214.30;;;;;;;;;;5054584;28;20491;-50
2022/12/10 02:09:06;;;;;;;490.93;198.80;;;;;;;;;;5059559;28;20234;-50
2022/12/10 02:11:37;;;;;;;445.93;173.83;;;;;;;;;;5059556;28;21236;-50
2022/12/10 02:14:14;;;;;;;549.03;219.83;;;;;;;;;;5055962;28;20202;-50
2022/12/10 02:16:56;;;;;;;532.63;208.63;;;;;;;;;;5050950;28;20252;-50
2022/12/10 02:19:25;;;;;;;567.03;219.17;;;;;;;;;;5051374;28;20333;-50
2022/12/10 02:21:52;;;;;;;436.73;172.50;;;;;;;;;;5061669;28;20862;-50
2022/12/10 02:24:24;;;;;;;494.80;202.90;;;;;;;;;;5056197;28;20214;-50
2022/12/10 02:26:55;;;;;;;539.57;214.07;;;;;;;;;;5059065;28;20725;-50
2022/12/10 02:29:24;;;;;;;527.37;213.53;;;;;;;;;;5054583;28;20289;-50
2022/12/10 02:32:01;;;;;;;532.93;213.30;;;;;;;;;;5059941;28;20283;-50
2022/12/10 02:34:30;;;;;;;431.70;176.17;;;;;;;;;;5059057;28;20222;-49
2022/12/10 02:36:58;;;;;;;425.43;178.53;;;;;;;;;;5059905;28;20250;-49
2022/12/10 02:39:30;;;;;;;452.10;188.17;;;;;;;;;;5053838;28;20575;-50
2022/12/10 02:41:58;;;;;;;546.13;223.30;;;;;;;;;;5058543;28;20628;-50
2022/12/10 02:44:25;;;;;;;464.00;192.20;;;;;;;;;;5055403;28;20328;-49
2022/12/10 02:46:53;;;;;;;513.27;205.73;;;;;;;;;;5054733;28;20327;-50
2022/12/10 02:49:19;;;;;;;453.67;182.50;;;;;;;;;;5057752;28;20227;-50
2022/12/10 02:51:45;;;;;;;536.67;211.23;;;;;;;;;;5061089;28;20233;-50
2022/12/10 02:54:30;;;;;;;523.77;209.17;;;;;;;;;;5057995;28;20234;-49
2022/12/10 02:57:00;;;;;;;567.27;226.47;;;;;;;;;;5057852;28;20210;-50
2022/12/10 02:59:26;;;;;;;458.70;181.93;;;;;;;;;;5055397;28;20218;-50
2022/12/10 03:02:07;;;;;;;490.30;198.33;;;;;;;;;;5059484;28;20186;-50
2022/12/10 03:04:45;;;;;;;476.70;191.27;;;;;;;;;;5054932;28;20404;-50
2022/12/10 03:07:15;;;;;;;458.50;185.63;;;;;;;;;;5057816;28;20269;-50
2022/12/10 03:09:46;;;;;;;455.77;183.80;;;;;;;;;;5059294;28;20932;-50
2022/12/10 03:12:22;;;;;;;494.87;197.13;;;;;;;;;;5053745;28;20211;-49
2022/12/10 03:14:48;;;;;;;478.17;196.17;;;;;;;;;;5053340;28;20298;-50
2022/12/10 03:17:15;;;;;;;401.53;164.73;;;;;;;;;;5056920;28;20250;-50
2022/12/10 03:19:42;;;;;;;483.23;198.50;;;;;;;;;;5058176;28;20223;-49
2022/12/10 03:22:11;;;;;;;455.07;183.33;;;;;;;;;;5061764;28;20652;-50
2022/12/10 03:24:37;;;;;;;538.67;217.97;;;;;;;;;;5053173;28;20215;-50
2022/12/10 03:27:04;;;;;;;468.10;198.90;;;;;;;;;;5060080;28;20287;-50
2022/12/10 03:29:33;;;;;;;570.57;228.73;;;;;;;;;;5056460;28;20241;-50
2022/12/10 03:32:00;;;;;;;513.37;206.03;;;;;;;;;;5058933;28;20187;-50
2022/12/10 03:34:26;;;;;;;522.93;215.70;;;;;;;;;;5063298;28;20247;-50
2022/12/10 03:36:52;;;;;;;447.13;187.67;;;;;;;;;;5057839;28;20241;-50
2022/12/10 03:39:18;;;;;;;438.23;180.57;;;;;;;;;;5058200;28;20279;-50
2022/12/10 03:41:44;;;;;;;508.33;208.77;;;;;;;;;;5057809;28;20233;-49
2022/12/10 03:44:10;;;;;;;444.67;187.63;;;;;;;;;;5056686;28;20210;-50
2022/12/10 03:46:36;;;;;;;530.27;213.67;;;;;;;;;;5059641;28;20692;-50
2022/12/10 03:49:03;;;;;;;430.30;180.27;;;;;;;;;;5057879;28;20214;-50
2022/12/10 03:51:29;;;;;;;420.57;176.77;;;;;;;;;;5063938;28;20382;-50
2022/12/10 03:53:55;;;;;;;432.77;178.30;;;;;;;;;;5059854;28;20281;-50
2022/12/10 03:56:22;;;;;;;487.37;208.33;;;;;;;;;;5061641;28;20234;-50
2022/12/10 03:58:48;;;;;;;512.97;210.40;;;;;;;;;;5055602;28;20380;-50
2022/12/10 04:01:14;;;;;;;468.20;197.77;;;;;;;;;;5057955;28;20219;-50
2022/12/10 04:03:42;;;;;;;528.50;216.60;;;;;;;;;;5055028;28;20227;-50
2022/12/10 04:06:09;;;;;;;453.27;186.67;;;;;;;;;;5056900;28;21059;-49
2022/12/10 04:08:35;;;;;;;548.43;221.40;;;;;;;;;;5054316;28;20302;-50
2022/12/10 04:11:05;;;;;;;478.97;193.73;;;;;;;;;;5060719;28;20715;-50
2022/12/10 04:16:26;;;;;;;482.80;198.90;;;;;;;;;;5058796;28;20576;-50
2022/12/10 04:18:52;;;;;;;563.40;225.23;;;;;;;;;;5059071;28;20210;-50
2022/12/10 04:26:52;;;;;;;442.97;177.30;;;;;;;;;;5050293;28;20292;-50
2022/12/10 04:29:19;;;;;;;472.20;192.17;;;;;;;;;;5055567;28;20745;-50
2022/12/10 04:31:45;;;;;;;460.80;195.00;;;;;;;;;;5060598;28;20245;-50
2022/12/10 04:34:11;;;;;;;541.97;226.43;;;;;;;;;;5055863;28;20304;-50
2022/12/10 04:36:37;;;;;;;529.80;214.83;;;;;;;;;;5055713;28;20211;-50
2022/12/10 04:39:03;;;;;;;544.63;226.60;;;;;;;;;;5055639;28;20219;-50
2022/12/10 04:41:29;;;;;;;504.23;196.73;;;;;;;;;;5059194;28;20934;-50
2022/12/10 04:43:55;;;;;;;464.00;188.37;;;;;;;;;;5055280;28;20305;-50
2022/12/10 04:46:21;;;;;;;475.77;193.53;;;;;;;;;;5063414;28;20217;-50
2022/12/10 04:48:47;;;;;;;554.87;223.77;;;;;;;;;;5054712;28;20282;-49
2022/12/10 04:51:14;;;;;;;422.07;168.70;;;;;;;;;;5054274;28;20579;-50
2022/12/10 04:53:40;;;;;;;516.73;216.80;;;;;;;;;;5055811;28;20223;-50
2022/12/10 04:56:06;;;;;;;517.07;200.97;;;;;;;;;;5055029;28;20190;-50
2022/12/10 04:58:33;;;;;;;457.23;179.77;;;;;;;;;;5057340;28;20261;-50
2022/12/10 05:01:05;;;;;;;510.27;207.37;;;;;;;;;;5056842;28;20261;-50
2022/12/10 05:03:31;;;;;;;531.43;217.37;;;;;;;;;;5054771;28;20281;-50
2022/12/10 05:06:04;;;;;;;462.57;183.40;;;;;;;;;;5054887;28;20210;-50
2022/12/10 05:08:31;;;;;;;466.00;186.90;;;;;;;;;;5054718;28;20634;-50
2022/12/10 05:11:04;;;;;;;417.47;179.97;;;;;;;;;;5056579;28;20224;-50
2022/12/10 05:13:30;;;;;;;529.93;212.17;;;;;;;;;;5055865;28;20190;-50
2022/12/10 05:15:56;;;;;;;454.27;188.93;;;;;;;;;;5061845;28;20286;-50
2022/12/10 05:18:22;;;;;;;554.27;217.57;;;;;;;;;;5062356;28;20219;-50
2022/12/10 05:20:48;;;;;;;411.27;175.03;;;;;;;;;;5061327;28;20276;-50
2022/12/10 05:23:30;;;;;;;446.23;174.40;;;;;;;;;;5061098;28;20272;-50
2022/12/10 05:26:00;;;;;;;436.70;176.57;;;;;;;;;;5067528;28;20282;-50
2022/12/10 05:28:26;;;;;;;444.77;180.07;;;;;;;;;;5060952;28;20179;-50
2022/12/10 05:30:52;;;;;;;530.30;217.27;;;;;;;;;;5059038;28;20222;-50
2022/12/10 05:33:18;;;;;;;431.63;172.87;;;;;;;;;;5059012;28;20591;-50
2022/12/10 05:35:44;;;;;;;490.73;201.77;;;;;;;;;;5058592;28;20218;-50
2022/12/10 05:38:10;;;;;;;415.67;170.97;;;;;;;;;;5060569;28;20266;-51
2022/12/10 05:40:39;;;;;;;522.63;215.77;;;;;;;;;;5057240;28;20288;-50
2022/12/10 05:43:05;;;;;;;527.50;203.90;;;;;;;;;;5063128;28;20261;-50
2022/12/10 05:45:34;;;;;;;521.03;204.80;;;;;;;;;;5056723;28;20230;-49
2022/12/10 05:48:00;;;;;;;469.50;191.57;;;;;;;;;;5064701;28;20877;-49
2022/12/10 05:50:27;;;;;;;424.73;177.17;;;;;;;;;;5058157;28;20222;-49
2022/12/10 05:52:53;;;;;;;514.10;206.80;;;;;;;;;;5067413;28;20416;-50
2022/12/10 05:55:19;;;;;;;407.90;168.40;;;;;;;;;;5060065;28;20218;-49
2022/12/10 05:57:45;;;;;;;526.97;215.87;;;;;;;;;;5058738;28;20361;-50
2022/12/10 06:00:12;;;;;;;441.23;182.97;;;;;;;;;;5054679;28;21003;-50
2022/12/10 06:02:38;;;;;;;440.73;179.63;;;;;;;;;;5062614;28;20223;-50
2022/12/10 06:05:04;;;;;;;439.37;184.63;;;;;;;;;;5051997;28;20200;-50
2022/12/10 06:07:30;;;;;;;547.40;229.63;;;;;;;;;;5061110;28;20530;-50
2022/12/10 06:09:56;;;;;;;505.57;211.13;;;;;;;;;;5058262;28;20265;-50
2022/12/10 06:12:22;;;;;;;440.10;182.20;;;;;;;;;;5054137;28;20226;-50
2022/12/10 06:14:48;;;;;;;504.93;206.50;;;;;;;;;;5056868;28;20221;-50
2022/12/10 06:17:14;;;;;;;446.37;189.10;;;;;;;;;;5054729;28;20964;-50
2022/12/10 06:19:40;;;;;;;495.53;204.07;;;;;;;;;;5058295;28;20243;-50
2022/12/10 06:22:07;;;;;;;445.27;182.23;;;;;;;;;;5056295;28;20212;-50
2022/12/10 06:24:32;;;;;;;447.63;187.97;;;;;;;;;;5050310;28;20812;-50
2022/12/10 06:26:58;;;;;;;486.47;195.43;;;;;;;;;;5056104;28;20211;-50
2022/12/10 06:29:24;;;;;;;435.93;176.13;;;;;;;;;;5051594;28;20218;-50
2022/12/10 06:31:50;;;;;;;518.80;212.60;;;;;;;;;;5059332;28;20178;-50
2022/12/10 06:34:16;;;;;;;427.57;174.30;;;;;;;;;;5059281;28;20210;-50
2022/12/10 06:36:42;;;;;;;531.50;216.73;;;;;;;;;;5057374;28;20374;-50
2022/12/10 06:39:08;;;;;;;531.27;216.80;;;;;;;;;;5056912;28;20297;-50
2022/12/10 06:41:34;;;;;;;548.40;219.77;;;;;;;;;;5056063;28;20223;-50
2022/12/10 06:44:00;;;;;;;479.50;194.40;;;;;;;;;;5056737;28;20305;-49
2022/12/10 06:46:28;;;;;;;498.97;211.63;;;;;;;;;;5049935;28;20186;-49
2022/12/10 06:48:54;;;;;;;667.43;275.87;;;;;;;;;;5052129;28;20353;-49
2022/12/10 06:51:20;;;;;;;474.80;201.47;;;;;;;;;;5060065;28;20309;-48
2022/12/10 06:53:46;;;;;;;645.27;258.03;;;;;;;;;;5053174;28;20238;-48
2022/12/10 06:56:13;;;;;;;496.70;202.40;;;;;;;;;;5058777;28;20555;-50
2022/12/10 06:58:41;;;;;;;494.97;202.57;;;;;;;;;;5067383;28;20245;-50
2022/12/10 07:01:09;;;;;;;472.23;190.00;;;;;;;;;;5064793;28;20562;-51
2022/12/10 07:03:35;;;;;;;592.30;249.37;;;;;;;;;;5065388;28;20276;-50
2022/12/10 07:06:01;;;;;;;621.67;234.80;;;;;;;;;;5063752;28;20230;-50
2022/12/10 07:08:27;;;;;;;493.30;203.43;;;;;;;;;;5059905;28;20206;-50
2022/12/10 07:10:53;;;;;;;614.17;245.73;;;;;;;;;;5058802;28;20185;-50
2022/12/10 07:13:19;;;;;;;489.43;192.70;;;;;;;;;;5064013;28;20644;-51
2022/12/10 07:15:45;;;;;;;489.57;199.73;;;;;;;;;;5064503;28;20302;-51
2022/12/10 07:18:11;;;;;;;507.53;203.37;;;;;;;;;;5064717;28;20202;-50
2022/12/10 07:20:37;;;;;;;468.70;188.70;;;;;;;;;;5064420;28;20203;-51
2022/12/10 07:23:03;;;;;;;609.03;246.93;;;;;;;;;;5064804;28;20555;-50
2022/12/10 07:25:30;;;;;;;523.13;210.13;;;;;;;;;;5062679;28;20213;-50
2022/12/10 07:27:56;;;;;;;651.17;259.67;;;;;;;;;;5043583;28;20826;-50
2022/12/10 07:30:22;;;;;;;500.03;205.57;;;;;;;;;;5062820;28;20211;-50
2022/12/10 07:32:48;;;;;;;656.30;253.03;;;;;;;;;;5063019;28;20253;-50
2022/12/10 07:35:14;;;;;;;627.50;248.47;;;;;;;;;;5058995;28;20576;-50
2022/12/10 07:37:40;;;;;;;579.80;229.83;;;;;;;;;;5064154;28;20567;-50
2022/12/10 07:40:06;;;;;;;473.27;192.27;;;;;;;;;;5038871;28;20331;-51
2022/12/10 07:42:32;;;;;;;502.07;209.73;;;;;;;;;;5052554;28;20298;-51
2022/12/10 07:44:58;;;;;;;575.00;235.27;;;;;;;;;;5063958;28;20258;-50
2022/12/10 07:47:25;;;;;;;486.37;193.50;;;;;;;;;;5059670;28;20301;-50
2022/12/10 07:49:51;;;;;;;619.13;255.07;;;;;;;;;;5060033;28;20266;-51
2022/12/10 07:52:17;;;;;;;599.77;239.40;;;;;;;;;;5045743;28;20322;-50
2022/12/10 07:54:43;;;;;;;409.53;178.70;;;;;;;;;;5047415;28;20255;-51
2022/12/10 07:57:09;;;;;;;545.10;225.40;;;;;;;;;;5050289;28;20219;-51
2022/12/10 07:59:35;;;;;;;440.90;189.83;;;;;;;;;;5061211;28;20216;-51
2022/12/10 08:02:01;;;;;;;579.17;232.90;;;;;;;;;;5068306;28;20205;-50
2022/12/10 08:04:30;;;;;;;555.80;223.13;;;;;;;;;;5069817;28;20194;-50
2022/12/10 08:06:56;;;;;;;591.60;238.93;;;;;;;;;;5048609;28;20738;-51
2022/12/10 08:09:22;;;;;;;535.20;213.50;;;;;;;;;;5027618;28;20257;-51
2022/12/10 08:11:48;;;;;;;446.67;188.63;;;;;;;;;;5063580;28;20234;-50
2022/12/10 08:14:14;;;;;;;460.90;182.73;;;;;;;;;;5058468;28;20272;-50
2022/12/10 08:16:40;;;;;;;398.47;165.87;;;;;;;;;;5064723;28;20171;-51
2022/12/10 08:19:06;;;;;;;609.03;238.37;;;;;;;;;;5067242;28;20245;-51
2022/12/10 08:21:33;;;;;;;586.63;235.57;;;;;;;;;;5060178;28;20207;-51
2022/12/10 08:24:01;;;;;;;598.90;247.83;;;;;;;;;;5059066;28;20371;-51
2022/12/10 08:26:29;;;;;;;499.20;201.20;;;;;;;;;;5062147;28;20194;-50
2022/12/10 08:28:55;;;;;;;502.40;205.20;;;;;;;;;;5065844;28;20175;-51
2022/12/10 08:31:22;;;;;;;595.77;222.27;;;;;;;;;;5063638;28;20268;-51
2022/12/10 08:33:48;;;;;;;592.47;233.47;;;;;;;;;;5051298;28;20390;-51
2022/12/10 08:36:15;;;;;;;468.80;189.23;;;;;;;;;;5044218;28;20249;-50
2022/12/10 08:38:42;;;;;;;639.07;248.10;;;;;;;;;;5043694;28;20215;-51
2022/12/10 08:41:09;;;;;;;604.90;234.93;;;;;;;;;;5050565;28;20599;-51
2022/12/10 08:43:36;;;;;;;495.20;200.57;;;;;;;;;;5063713;28;20617;-51
2022/12/10 08:46:02;;;;;;;589.37;229.70;;;;;;;;;;5069924;28;20293;-51
2022/12/10 08:48:28;;;;;;;547.17;222.37;;;;;;;;;;5072898;28;20207;-51
2022/12/10 08:50:54;;;;;;;473.80;196.17;;;;;;;;;;5061943;28;20675;-51
2022/12/10 08:53:20;;;;;;;540.03;220.57;;;;;;;;;;5063319;28;20274;-51
2022/12/10 08:55:49;;;;;;;444.43;191.03;;;;;;;;;;5063162;28;20193;-51
2022/12/10 08:58:15;;;;;;;605.93;236.97;;;;;;;;;;5062555;28;20222;-51
2022/12/10 09:00:41;;;;;;;563.07;225.67;;;;;;;;;;5062860;28;20238;-51
2022/12/10 09:03:08;;;;;;;581.20;233.57;;;;;;;;;;5063237;28;20299;-51
2022/12/10 09:05:34;;;;;;;533.73;214.27;;;;;;;;;;5042934;28;20304;-51
2022/12/10 09:08:00;;;;;;;464.60;195.33;;;;;;;;;;5063300;28;20209;-50
2022/12/10 09:10:26;;;;;;;462.40;185.37;;;;;;;;;;5043413;28;20728;-50
2022/12/10 09:12:52;;;;;;;469.00;187.77;;;;;;;;;;5059409;28;20388;-51
2022/12/10 09:15:18;;;;;;;581.47;236.67;;;;;;;;;;5063630;28;20214;-50
2022/12/10 09:17:45;;;;;;;574.30;238.93;;;;;;;;;;5061139;28;20210;-51
2022/12/10 09:20:10;;;;;;;621.67;259.27;;;;;;;;;;5063048;28;20171;-51
2022/12/10 09:22:37;;;;;;;545.07;223.10;;;;;;;;;;5063063;28;20202;-51
2022/12/10 09:25:06;;;;;;;470.60;188.57;;;;;;;;;;5063027;28;20305;-52
2022/12/10 09:27:33;;;;;;;618.30;244.13;;;;;;;;;;5054139;28;20306;-52
2022/12/10 09:29:59;;;;;;;600.73;246.17;;;;;;;;;;5034982;28;20219;-51
2022/12/10 09:32:25;;;;;;;466.10;187.93;;;;;;;;;;5048148;28;20762;-51
2022/12/10 09:34:51;;;;;;;654.43;253.23;;;;;;;;;;5043116;28;20179;-51
2022/12/10 09:37:18;;;;;;;543.43;219.13;;;;;;;;;;5042802;28;20215;-51
2022/12/10 09:39:44;;;;;;;557.23;223.87;;;;;;;;;;5061332;28;20207;-51
2022/12/10 09:42:12;;;;;;;589.83;226.10;;;;;;;;;;5060655;28;20225;-51
2022/12/10 09:44:38;;;;;;;628.23;244.03;;;;;;;;;;5062239;28;20763;-51
2022/12/10 09:47:06;;;;;;;528.23;212.67;;;;;;;;;;5063231;28;20186;-51
2022/12/10 09:49:51;;;;;;;553.13;225.87;;;;;;;;;;5063315;28;20229;-51
2022/12/10 09:52:22;;;;;;;544.83;218.90;;;;;;;;;;5043597;28;20298;-51
2022/12/10 09:54:55;;;;;;;618.70;236.77;;;;;;;;;;5041524;28;20777;-51
2022/12/10 09:57:27;;;;;;;503.93;195.80;;;;;;;;;;5041847;28;20298;-52
2022/12/10 09:59:54;;;;;;;602.73;240.90;;;;;;;;;;5061632;28;20355;-52
2022/12/10 10:02:20;;;;;;;435.77;186.23;;;;;;;;;;5063518;28;20214;-51
2022/12/10 10:04:46;;;;;;;572.63;243.63;;;;;;;;;;5066634;28;20210;-51
2022/12/10 10:07:17;;;;;;;497.90;191.17;;;;;;;;;;5073371;28;20272;-51
2022/12/10 10:09:43;;;;;;;509.47;205.53;;;;;;;;;;5066089;28;20263;-52
2022/12/10 10:12:18;;;;;;;661.93;252.23;;;;;;;;;;5066048;28;20214;-51
2022/12/10 10:14:44;;;;;;;531.33;213.77;;;;;;;;;;5073117;28;20247;-51
2022/12/10 10:17:14;;;;;;;573.17;240.83;;;;;;;;;;5077105;28;20178;-51
2022/12/10 10:19:41;;;;;;;538.43;219.57;;;;;;;;;;5066514;28;20182;-51
2022/12/10 10:22:08;;;;;;;558.87;231.47;;;;;;;;;;5084068;28;20654;-51
2022/12/10 10:24:42;;;;;;;469.23;202.10;;;;;;;;;;5070930;28;20222;-51
2022/12/10 10:27:13;;;;;;;603.17;239.43;;;;;;;;;;5065486;28;20273;-50
2022/12/10 10:29:39;;;;;;;489.47;195.17;;;;;;;;;;5066641;28;20227;-50
2022/12/10 10:32:11;;;;;;;606.53;251.73;;;;;;;;;;5065157;28;20186;-50
2022/12/10 10:34:39;;;;;;;392.30;169.53;;;;;;;;;;5086298;28;20166;-51
2022/12/10 10:37:05;;;;;;;584.17;240.43;;;;;;;;;;5082328;28;20240;-51
2022/12/10 10:39:32;;;;;;;480.77;192.83;;;;;;;;;;5056239;28;20222;-51
2022/12/10 10:41:59;;;;;;;509.03;198.03;;;;;;;;;;5064735;28;20613;-51
2022/12/10 10:44:27;;;;;;;524.00;217.33;;;;;;;;;;5065303;28;20254;-51
2022/12/10 10:46:53;;;;;;;481.17;197.07;;;;;;;;;;5064186;28;20527;-51
2022/12/10 10:49:23;;;;;;;655.40;261.90;;;;;;;;;;5065223;28;20290;-51
2022/12/10 10:51:50;;;;;;;495.40;198.30;;;;;;;;;;5062776;28;20683;-52
2022/12/10 10:54:54;;;;;;;624.13;250.80;;;;;;;;;;5064408;28;20288;-51
2022/12/10 10:57:21;;;;;;;613.30;244.57;;;;;;;;;;5053746;28;20734;-51
2022/12/10 10:59:47;;;;;;;657.57;264.60;;;;;;;;;;5061639;28;20262;-52
2022/12/10 11:02:20;;;;;;;490.43;199.70;;;;;;;;;;5054021;28;20747;-51
2022/12/10 11:04:47;;;;;;;551.10;221.57;;;;;;;;;;5043785;28;20679;-52
2022/12/10 11:07:18;;;;;;;580.37;235.17;;;;;;;;;;5045986;28;20215;-50
2022/12/10 11:09:45;;;;;;;653.47;258.23;;;;;;;;;;5044345;28;20302;-51
2022/12/10 11:12:23;;;;;;;452.93;188.23;;;;;;;;;;5064673;28;20268;-51
2022/12/10 11:14:49;;;;;;;606.07;245.50;;;;;;;;;;5061813;28;20696;-51
2022/12/10 11:17:15;;;;;;;457.00;193.33;;;;;;;;;;5065579;28;20295;-51
2022/12/10 11:19:53;;;;;;;530.63;227.07;;;;;;;;;;5060175;28;20207;-51
2022/12/10 11:22:23;;;;;;;535.40;225.23;;;;;;;;;;5044935;28;20284;-51
2022/12/10 11:24:49;;;;;;;485.70;207.37;;;;;;;;;;5065096;28;20215;-51
2022/12/10 11:27:23;;;;;;;554.50;225.47;;;;;;;;;;5062993;28;20686;-50
2022/12/10 11:29:57;;;;;;;556.73;231.67;;;;;;;;;;5063347;28;20219;-50
2022/12/10 11:32:23;;;;;;;527.33;218.43;;;;;;;;;;5064634;28;20238;-50
2022/12/10 11:35:04;;;;;;;594.83;251.67;;;;;;;;;;5065229;28;20179;-51
2022/12/10 11:37:30;;;;;;;548.83;217.83;;;;;;;;;;5063135;28;20563;-51
2022/12/10 11:40:06;;;;;;;441.97;183.90;;;;;;;;;;5064982;28;20290;-51
2022/12/10 11:42:32;;;;;;;417.63;174.97;;;;;;;;;;5063427;28;20229;-51
2022/12/10 11:45:10;;;;;;;568.20;230.63;;;;;;;;;;5062448;28;20647;-51
2022/12/10 11:47:51;;;;;;;571.03;231.37;;;;;;;;;;5064164;28;20590;-51
2022/12/10 11:50:27;;;;;;;598.47;235.80;;;;;;;;;;5065084;28;20296;-51
2022/12/10 11:53:02;;;;;;;382.43;159.87;;;;;;;;;;5065772;28;20209;-51
2022/12/10 11:55:28;;;;;;;545.90;220.03;;;;;;;;;;5044043;28;20234;-51
2022/12/10 11:57:57;;;;;;;647.90;262.80;;;;;;;;;;5043095;28;20551;-54
2022/12/10 12:00:27;;;;;;;571.77;232.03;;;;;;;;;;5051813;28;20554;-52
2022/12/10 12:03:05;;;;;;;515.03;207.93;;;;;;;;;;5063242;28;20214;-52
2022/12/10 12:05:50;;;;;;;513.20;205.97;;;;;;;;;;5061272;28;20777;-51
2022/12/10 12:08:17;;;;;;;484.30;209.07;;;;;;;;;;5063479;28;20675;-51
2022/12/10 12:10:55;;;;;;;655.03;273.90;;;;;;;;;;5063968;28;20254;-52
2022/12/10 12:13:27;;;;;;;495.83;200.50;;;;;;;;;;5061692;28;20258;-52
2022/12/10 12:16:03;;;;;;;477.70;200.13;;;;;;;;;;5063750;28;20225;-52
2022/12/10 12:18:35;;;;;;;489.10;200.57;;;;;;;;;;5064272;28;20221;-52
2022/12/10 12:21:02;;;;;;;490.97;208.17;;;;;;;;;;5063954;28;20225;-52
2022/12/10 12:23:31;;;;;;;588.40;253.33;;;;;;;;;;5063405;28;20729;-52
2022/12/10 12:26:01;;;;;;;503.77;214.57;;;;;;;;;;5063191;28;20199;-52
2022/12/10 12:28:56;;;;;;;684.97;276.80;;;;;;;;;;5063123;28;20570;-52
2022/12/10 12:31:26;;;;;;;655.60;262.17;;;;;;;;;;5061789;28;20218;-52
2022/12/10 12:33:57;;;;;;;516.47;216.53;;;;;;;;;;5076738;28;20226;-51
2022/12/10 12:36:28;;;;;;;520.23;210.90;;;;;;;;;;5063660;28;20206;-52
2022/12/10 12:39:03;;;;;;;494.13;206.53;;;;;;;;;;5063327;28;20215;-51
2022/12/10 12:41:37;;;;;;;643.00;260.30;;;;;;;;;;5063197;28;20653;-51
2022/12/10 12:44:10;;;;;;;650.17;262.20;;;;;;;;;;5061037;28;20684;-52
2022/12/10 12:46:38;;;;;;;611.87;256.60;;;;;;;;;;5063299;28;20178;-52
2022/12/10 12:49:23;;;;;;;498.37;213.07;;;;;;;;;;5061566;28;20215;-52
2022/12/10 12:51:53;;;;;;;636.20;267.47;;;;;;;;;;5067927;22;20223;-68
2022/12/10 12:54:19;;;;;;;719.70;297.17;;;;;;;;;;5013496;28;20226;-67
2022/12/10 12:57:03;;;;;;;734.47;303.17;;;;;;;;;;5018653;28;20223;-67
2022/12/10 12:59:37;;;;;;;549.97;232.37;;;;;;;;;;5022246;28;20246;-66
2022/12/10 13:02:15;;;;;;;679.50;277.87;;;;;;;;;;5005995;28;20283;-67
2022/12/10 13:04:41;;;;;;;544.33;224.57;;;;;;;;;;5004808;28;20200;-67
2022/12/10 13:07:10;;;;;;;187.00;91.57;;;;;;;;;;5020705;28;20201;-67
2022/12/10 13:09:43;;;;;;;248.77;114.40;;;;;;;;;;5021893;28;20658;-67
2022/12/10 13:12:16;;;;;;;199.60;95.53;;;;;;;;;;5023183;28;20227;-66
2022/12/10 13:14:55;;;;;;;200.60;95.70;;;;;;;;;;5023438;28;20218;-67
2022/12/10 13:17:31;;;;;;;169.40;86.90;;;;;;;;;;5023102;28;20262;-67
2022/12/10 13:20:15;;;;;;;199.13;95.97;;;;;;;;;;5016667;28;20173;-67
2022/12/10 13:22:44;;;;;;;199.73;96.27;;;;;;;;;;5023808;28;20207;-67
2022/12/10 13:25:12;;;;;;;174.90;88.83;;;;;;;;;;5022408;28;20212;-67
2022/12/10 13:27:38;;;;;;;222.17;101.93;;;;;;;;;;5020881;28;20274;-67
2022/12/10 13:30:13;;;;;;;183.47;90.37;;;;;;;;;;5021968;28;20209;-67
2022/12/10 13:32:39;;;;;;;247.47;112.90;;;;;;;;;;5011257;28;20815;-66
2022/12/10 13:35:08;;;;;;;224.97;105.20;;;;;;;;;;5023485;28;20230;-67
2022/12/10 13:37:38;;;;;;;179.30;89.87;;;;;;;;;;5026482;28;20323;-67
2022/12/10 13:40:07;;;;;;;615.70;253.20;;;;;;;;;;5012813;28;20219;-67
2022/12/10 13:45:21;;;;;;;564.17;233.13;;;;;;;;;;5007212;28;20820;-66
2022/12/10 13:47:55;;;;;;;580.43;225.23;;;;;;;;;;5007026;28;20346;-68
2022/12/10 13:50:34;;;;;;;637.10;269.00;;;;;;;;;;5003395;28;20216;-68
2022/12/10 13:53:12;;;;;;;617.40;252.97;;;;;;;;;;5006820;28;20632;-67
2022/12/10 13:55:40;;;;;;;446.63;187.33;;;;;;;;;;5022160;28;20180;-67
2022/12/10 13:58:19;;;;;;;543.80;215.63;;;;;;;;;;5011174;28;20317;-66
2022/12/10 14:00:58;;;;;;;620.00;251.67;;;;;;;;;;5010284;28;20303;-67
2022/12/10 14:03:28;;;;;;;700.20;276.70;;;;;;;;;;5017418;28;20216;-67
2022/12/10 14:05:56;;;;;;;500.57;204.43;;;;;;;;;;5000466;28;20283;-67
2022/12/10 14:08:33;;;;;;;508.63;204.83;;;;;;;;;;5019262;28;20628;-67
2022/12/10 14:10:59;;;;;;;487.30;199.27;;;;;;;;;;5018639;28;20667;-67